Terminal Aerodrome Forecast
Issued by NWS

Home | Current Version | Previous Version | Text Only | Print | Product List | Glossary On
Versions: 1 2 3 4 5 6 7 8 9 10 11 12 13 14 15
000
FTUS42 KILM 021120
TAFCRE
TAF
KCRE 021120Z 0212/0312 22007KT P6SM SCT025
     FM021700 20008KT P6SM VCTS SCT025 BKN050CB BKN100
      TEMPO 0217/0220 3SM SHRA BKN025
     FM030000 19007KT P6SM SCT025 BKN050 BKN100
     FM030600 VRB03KT 5SM -SHRA BKN016=

USA.gov is the U.S. government's official web portal to all federal, state and local government web resources and services.